セブ の空港の天気 - METARとTAF

マクタン・セブ国際空港 ( RPVM / CEB ) - フィリピン セブ / ラプ=ラプ
飛行場実況気象(Metar)
観測時間12/18 16:00 PHT (12/18 08:00 UTC)
風向・風速東 2m/s
視程10km以上
天気現象
少しの雲 雲底高度 610m
全天の8割程度の雲 雲底高度 9140m
気温30℃
湿度70%
気圧1008hPa
METARRPVM 180800Z 09004KT 050V160 9999 FEW020 BKN300 30/24 Q1008 NOSIG RMK A2977
過去の天気等 Google飛行場航空写真 Wunderground天気予報

過去48時間のMETAR

飛行場予報(TAF)
発表時間: 12/18 13:00 PHT (12/18 05:00 UTC)
予報対象時間: 18日14時 PHT ~ 19日20時 PHT
風向・風速東南東 4m/s
視程10km以上
少しの雲 雲底高度 610m
全天の8割程度の雲 雲底高度 9,140m
18日14時 PHT ~ 18日20時 PHT に一時的に
風向・風速南 7m/s
視程8,000m
天気現象弱いしゅう雨
全天の4割程度の雲 雲底高度 610m
全天の8割程度の雲 雲底高度 3,050m
18日20時 PHT ~ 19日2時 PHT に一時的に
風向・風速東 4m/s
TAF RPVM 180500Z 1806/1912 11008KT 9999 FEW020 BKN300
TEMPO 1806/1812 17014KT 8000 -SHRA SCT020 BKN100
TEMPO 1812/1818 10008KT